sensor_id;sensor_type;location;lat;lon;timestamp;P1;durP1;ratioP1;P2;durP2;ratioP2
19312;SDS011;9791;50.820;4.406;2022-08-19T00:01:12;20.33;;;16.65;;
19312;SDS011;9791;50.820;4.406;2022-08-19T00:03:38;21.85;;;16.67;;
19312;SDS011;9791;50.820;4.406;2022-08-19T00:06:04;21.33;;;15.75;;
19312;SDS011;9791;50.820;4.406;2022-08-19T00:08:30;17.55;;;14.77;;
19312;SDS011;9791;50.820;4.406;2022-08-19T00:10:57;21.63;;;16.73;;
19312;SDS011;9791;50.820;4.406;2022-08-19T00:13:23;21.55;;;17.40;;
19312;SDS011;9791;50.820;4.406;2022-08-19T00:15:49;22.25;;;18.63;;
19312;SDS011;9791;50.820;4.406;2022-08-19T00:18:15;31.15;;;23.20;;
19312;SDS011;9791;50.820;4.406;2022-08-19T00:20:41;29.55;;;22.67;;
19312;SDS011;9791;50.820;4.406;2022-08-19T00:23:07;28.27;;;23.17;;
19312;SDS011;9791;50.820;4.406;2022-08-19T00:25:33;33.83;;;24.77;;
19312;SDS011;9791;50.820;4.406;2022-08-19T00:27:59;37.83;;;28.00;;
19312;SDS011;9791;50.820;4.406;2022-08-19T00:30:25;40.00;;;29.02;;
19312;SDS011;9791;50.820;4.406;2022-08-19T00:32:53;40.13;;;30.50;;
19312;SDS011;9791;50.820;4.406;2022-08-19T00:35:20;41.85;;;28.65;;
19312;SDS011;9791;50.820;4.406;2022-08-19T00:37:47;42.85;;;32.08;;
19312;SDS011;9791;50.820;4.406;2022-08-19T00:40:14;49.60;;;32.60;;
19312;SDS011;9791;50.820;4.406;2022-08-19T00:42:40;48.03;;;33.70;;
19312;SDS011;9791;50.820;4.406;2022-08-19T00:45:14;43.65;;;31.73;;
19312;SDS011;9791;50.820;4.406;2022-08-19T00:47:42;48.88;;;32.58;;
19312;SDS011;9791;50.820;4.406;2022-08-19T00:50:09;48.58;;;34.33;;
19312;SDS011;9791;50.820;4.406;2022-08-19T00:52:36;46.72;;;33.75;;
19312;SDS011;9791;50.820;4.406;2022-08-19T00:55:05;46.97;;;34.50;;
19312;SDS011;9791;50.820;4.406;2022-08-19T00:57:36;44.05;;;33.80;;
19312;SDS011;9791;50.820;4.406;2022-08-19T01:00:08;45.05;;;33.15;;
19312;SDS011;9791;50.820;4.406;2022-08-19T01:02:36;44.45;;;33.10;;
19312;SDS011;9791;50.820;4.406;2022-08-19T01:05:03;46.65;;;33.85;;
19312;SDS011;9791;50.820;4.406;2022-08-19T01:07:30;45.15;;;33.22;;
19312;SDS011;9791;50.820;4.406;2022-08-19T01:09:56;47.53;;;34.45;;
19312;SDS011;9791;50.820;4.406;2022-08-19T01:12:22;47.13;;;34.55;;
19312;SDS011;9791;50.820;4.406;2022-08-19T01:14:48;42.20;;;31.40;;
19312;SDS011;9791;50.820;4.406;2022-08-19T01:17:15;42.53;;;30.77;;
19312;SDS011;9791;50.820;4.406;2022-08-19T01:19:42;38.28;;;28.30;;
19312;SDS011;9791;50.820;4.406;2022-08-19T01:22:17;49.17;;;33.50;;
19312;SDS011;9791;50.820;4.406;2022-08-19T01:24:44;43.92;;;32.28;;
19312;SDS011;9791;50.820;4.406;2022-08-19T01:27:11;40.95;;;30.83;;
19312;SDS011;9791;50.820;4.406;2022-08-19T01:29:40;40.88;;;30.38;;
19312;SDS011;9791;50.820;4.406;2022-08-19T01:32:07;43.63;;;29.70;;
19312;SDS011;9791;50.820;4.406;2022-08-19T01:34:34;36.38;;;27.05;;
19312;SDS011;9791;50.820;4.406;2022-08-19T01:37:00;34.85;;;26.20;;
19312;SDS011;9791;50.820;4.406;2022-08-19T01:39:32;33.83;;;24.67;;
19312;SDS011;9791;50.820;4.406;2022-08-19T01:41:58;32.58;;;24.52;;
19312;SDS011;9791;50.820;4.406;2022-08-19T01:44:28;34.25;;;27.17;;
19312;SDS011;9791;50.820;4.406;2022-08-19T01:46:54;31.35;;;23.83;;
19312;SDS011;9791;50.820;4.406;2022-08-19T01:49:21;35.03;;;25.70;;
19312;SDS011;9791;50.820;4.406;2022-08-19T01:51:47;30.08;;;23.05;;
19312;SDS011;9791;50.820;4.406;2022-08-19T01:54:15;28.45;;;21.40;;
19312;SDS011;9791;50.820;4.406;2022-08-19T01:56:41;26.33;;;21.52;;
19312;SDS011;9791;50.820;4.406;2022-08-19T01:59:12;28.13;;;20.15;;
19312;SDS011;9791;50.820;4.406;2022-08-19T02:01:40;27.20;;;21.67;;
19312;SDS011;9791;50.820;4.406;2022-08-19T02:04:06;27.20;;;20.98;;
19312;SDS011;9791;50.820;4.406;2022-08-19T02:06:32;28.63;;;22.15;;
19312;SDS011;9791;50.820;4.406;2022-08-19T02:08:58;26.25;;;19.42;;
19312;SDS011;9791;50.820;4.406;2022-08-19T02:11:29;25.30;;;19.60;;
19312;SDS011;9791;50.820;4.406;2022-08-19T02:13:56;22.75;;;18.73;;
19312;SDS011;9791;50.820;4.406;2022-08-19T02:16:22;22.23;;;16.02;;
19312;SDS011;9791;50.820;4.406;2022-08-19T02:18:49;20.88;;;15.88;;
19312;SDS011;9791;50.820;4.406;2022-08-19T02:21:16;19.45;;;15.45;;
19312;SDS011;9791;50.820;4.406;2022-08-19T02:23:42;21.33;;;16.17;;
19312;SDS011;9791;50.820;4.406;2022-08-19T02:26:09;24.15;;;17.60;;
19312;SDS011;9791;50.820;4.406;2022-08-19T02:28:35;22.65;;;18.08;;
19312;SDS011;9791;50.820;4.406;2022-08-19T02:31:01;29.60;;;21.95;;
19312;SDS011;9791;50.820;4.406;2022-08-19T02:33:28;28.00;;;22.17;;
19312;SDS011;9791;50.820;4.406;2022-08-19T02:35:54;26.67;;;20.85;;
19312;SDS011;9791;50.820;4.406;2022-08-19T02:38:20;26.60;;;20.23;;
19312;SDS011;9791;50.820;4.406;2022-08-19T02:40:53;26.73;;;19.85;;
19312;SDS011;9791;50.820;4.406;2022-08-19T02:43:19;24.58;;;18.15;;
19312;SDS011;9791;50.820;4.406;2022-08-19T02:45:45;26.02;;;19.13;;
19312;SDS011;9791;50.820;4.406;2022-08-19T02:48:13;24.23;;;17.40;;
19312;SDS011;9791;50.820;4.406;2022-08-19T02:50:40;23.73;;;18.35;;
19312;SDS011;9791;50.820;4.406;2022-08-19T02:53:06;23.90;;;18.35;;
19312;SDS011;9791;50.820;4.406;2022-08-19T02:55:33;24.17;;;18.73;;
19312;SDS011;9791;50.820;4.406;2022-08-19T02:57:59;27.92;;;20.20;;
19312;SDS011;9791;50.820;4.406;2022-08-19T03:00:25;26.67;;;20.60;;
19312;SDS011;9791;50.820;4.406;2022-08-19T03:02:52;29.10;;;20.27;;
19312;SDS011;9791;50.820;4.406;2022-08-19T03:05:18;26.08;;;19.45;;
19312;SDS011;9791;50.820;4.406;2022-08-19T03:07:44;26.13;;;19.80;;
19312;SDS011;9791;50.820;4.406;2022-08-19T03:10:11;27.70;;;18.15;;
19312;SDS011;9791;50.820;4.406;2022-08-19T03:12:38;25.48;;;17.90;;
19312;SDS011;9791;50.820;4.406;2022-08-19T03:15:05;25.80;;;18.52;;
19312;SDS011;9791;50.820;4.406;2022-08-19T03:17:32;25.83;;;18.10;;
19312;SDS011;9791;50.820;4.406;2022-08-19T03:19:58;26.60;;;19.45;;
19312;SDS011;9791;50.820;4.406;2022-08-19T03:22:24;31.02;;;20.75;;
19312;SDS011;9791;50.820;4.406;2022-08-19T03:24:50;31.17;;;21.35;;
19312;SDS011;9791;50.820;4.406;2022-08-19T03:27:16;25.55;;;18.20;;
19312;SDS011;9791;50.820;4.406;2022-08-19T03:29:43;27.38;;;18.27;;
19312;SDS011;9791;50.820;4.406;2022-08-19T03:32:10;24.38;;;18.67;;
19312;SDS011;9791;50.820;4.406;2022-08-19T03:34:37;28.23;;;19.00;;
19312;SDS011;9791;50.820;4.406;2022-08-19T03:37:05;24.40;;;17.38;;
19312;SDS011;9791;50.820;4.406;2022-08-19T03:39:31;24.85;;;17.10;;
19312;SDS011;9791;50.820;4.406;2022-08-19T03:41:58;22.50;;;16.63;;
19312;SDS011;9791;50.820;4.406;2022-08-19T03:44:27;23.15;;;15.68;;
19312;SDS011;9791;50.820;4.406;2022-08-19T03:46:55;24.23;;;15.90;;
19312;SDS011;9791;50.820;4.406;2022-08-19T03:49:22;28.42;;;18.80;;
19312;SDS011;9791;50.820;4.406;2022-08-19T03:51:48;26.63;;;17.23;;
19312;SDS011;9791;50.820;4.406;2022-08-19T03:54:17;25.60;;;18.38;;
19312;SDS011;9791;50.820;4.406;2022-08-19T03:56:43;27.98;;;19.17;;
19312;SDS011;9791;50.820;4.406;2022-08-19T03:59:12;26.15;;;19.65;;
19312;SDS011;9791;50.820;4.406;2022-08-19T04:01:38;23.25;;;18.00;;
19312;SDS011;9791;50.820;4.406;2022-08-19T04:04:04;25.13;;;18.15;;
19312;SDS011;9791;50.820;4.406;2022-08-19T04:06:32;26.75;;;18.33;;
19312;SDS011;9791;50.820;4.406;2022-08-19T04:08:59;28.92;;;19.40;;
19312;SDS011;9791;50.820;4.406;2022-08-19T04:11:27;26.90;;;19.25;;
19312;SDS011;9791;50.820;4.406;2022-08-19T04:13:53;28.73;;;19.88;;
19312;SDS011;9791;50.820;4.406;2022-08-19T04:16:21;33.50;;;19.85;;
19312;SDS011;9791;50.820;4.406;2022-08-19T04:18:47;28.08;;;19.05;;
19312;SDS011;9791;50.820;4.406;2022-08-19T04:21:22;29.02;;;19.42;;
19312;SDS011;9791;50.820;4.406;2022-08-19T04:23:48;26.80;;;18.27;;
19312;SDS011;9791;50.820;4.406;2022-08-19T04:26:15;27.15;;;17.40;;
19312;SDS011;9791;50.820;4.406;2022-08-19T04:28:42;27.13;;;18.17;;
19312;SDS011;9791;50.820;4.406;2022-08-19T04:31:12;25.02;;;16.55;;
19312;SDS011;9791;50.820;4.406;2022-08-19T04:33:38;26.02;;;17.35;;
19312;SDS011;9791;50.820;4.406;2022-08-19T04:36:04;27.40;;;16.45;;
19312;SDS011;9791;50.820;4.406;2022-08-19T04:38:30;23.65;;;15.27;;
19312;SDS011;9791;50.820;4.406;2022-08-19T04:40:56;24.23;;;15.43;;
19312;SDS011;9791;50.820;4.406;2022-08-19T04:43:41;27.67;;;15.73;;
19312;SDS011;9791;50.820;4.406;2022-08-19T04:46:07;26.88;;;15.52;;
19312;SDS011;9791;50.820;4.406;2022-08-19T04:48:35;25.10;;;13.93;;
19312;SDS011;9791;50.820;4.406;2022-08-19T04:51:05;23.08;;;14.77;;
19312;SDS011;9791;50.820;4.406;2022-08-19T04:53:32;25.25;;;16.52;;
19312;SDS011;9791;50.820;4.406;2022-08-19T04:55:59;22.83;;;15.13;;
19312;SDS011;9791;50.820;4.406;2022-08-19T04:58:27;23.00;;;14.73;;
19312;SDS011;9791;50.820;4.406;2022-08-19T05:00:53;26.90;;;14.57;;
19312;SDS011;9791;50.820;4.406;2022-08-19T05:03:20;25.10;;;15.68;;
19312;SDS011;9791;50.820;4.406;2022-08-19T05:05:47;27.20;;;17.05;;
19312;SDS011;9791;50.820;4.406;2022-08-19T05:08:17;27.38;;;17.00;;
19312;SDS011;9791;50.820;4.406;2022-08-19T05:10:47;24.45;;;16.55;;
19312;SDS011;9791;50.820;4.406;2022-08-19T05:13:13;27.20;;;16.48;;
19312;SDS011;9791;50.820;4.406;2022-08-19T05:15:39;24.45;;;15.55;;
19312;SDS011;9791;50.820;4.406;2022-08-19T05:18:05;25.60;;;17.55;;
19312;SDS011;9791;50.820;4.406;2022-08-19T05:20:50;24.42;;;16.55;;
19312;SDS011;9791;50.820;4.406;2022-08-19T05:23:35;28.63;;;15.98;;
19312;SDS011;9791;50.820;4.406;2022-08-19T05:26:01;24.20;;;17.05;;
19312;SDS011;9791;50.820;4.406;2022-08-19T05:28:27;23.45;;;16.42;;
19312;SDS011;9791;50.820;4.406;2022-08-19T05:30:53;24.60;;;17.15;;
19312;SDS011;9791;50.820;4.406;2022-08-19T05:33:20;30.92;;;17.00;;
19312;SDS011;9791;50.820;4.406;2022-08-19T05:35:47;21.77;;;16.17;;
19312;SDS011;9791;50.820;4.406;2022-08-19T05:38:14;22.80;;;16.60;;
19312;SDS011;9791;50.820;4.406;2022-08-19T05:40:40;26.95;;;16.90;;
19312;SDS011;9791;50.820;4.406;2022-08-19T05:43:07;26.13;;;15.85;;
19312;SDS011;9791;50.820;4.406;2022-08-19T05:45:37;22.17;;;15.55;;
19312;SDS011;9791;50.820;4.406;2022-08-19T05:48:03;24.10;;;15.75;;
19312;SDS011;9791;50.820;4.406;2022-08-19T05:50:29;24.15;;;15.30;;
19312;SDS011;9791;50.820;4.406;2022-08-19T05:52:55;22.65;;;14.80;;
19312;SDS011;9791;50.820;4.406;2022-08-19T05:55:21;23.08;;;14.88;;
19312;SDS011;9791;50.820;4.406;2022-08-19T05:57:48;20.63;;;14.02;;
19312;SDS011;9791;50.820;4.406;2022-08-19T06:00:14;17.92;;;12.52;;
19312;SDS011;9791;50.820;4.406;2022-08-19T06:02:40;17.67;;;12.02;;
19312;SDS011;9791;50.820;4.406;2022-08-19T06:05:07;17.40;;;11.32;;
19312;SDS011;9791;50.820;4.406;2022-08-19T06:07:35;16.83;;;10.30;;
19312;SDS011;9791;50.820;4.406;2022-08-19T06:10:03;15.27;;;9.55;;
19312;SDS011;9791;50.820;4.406;2022-08-19T06:12:30;14.98;;;8.82;;
19312;SDS011;9791;50.820;4.406;2022-08-19T06:15:04;15.07;;;9.40;;
19312;SDS011;9791;50.820;4.406;2022-08-19T06:17:30;11.88;;;9.02;;
19312;SDS011;9791;50.820;4.406;2022-08-19T06:19:56;11.35;;;7.43;;
19312;SDS011;9791;50.820;4.406;2022-08-19T06:22:23;17.65;;;7.57;;
19312;SDS011;9791;50.820;4.406;2022-08-19T06:24:49;11.27;;;7.07;;
19312;SDS011;9791;50.820;4.406;2022-08-19T06:27:17;12.65;;;7.28;;
19312;SDS011;9791;50.820;4.406;2022-08-19T06:29:43;12.57;;;6.63;;
19312;SDS011;9791;50.820;4.406;2022-08-19T06:32:11;12.75;;;5.78;;
19312;SDS011;9791;50.820;4.406;2022-08-19T06:34:37;11.10;;;6.15;;
19312;SDS011;9791;50.820;4.406;2022-08-19T06:37:04;10.27;;;6.07;;
19312;SDS011;9791;50.820;4.406;2022-08-19T06:39:32;10.93;;;5.28;;
19312;SDS011;9791;50.820;4.406;2022-08-19T06:41:59;9.88;;;5.88;;
19312;SDS011;9791;50.820;4.406;2022-08-19T06:44:29;8.55;;;4.90;;
19312;SDS011;9791;50.820;4.406;2022-08-19T06:46:59;14.02;;;5.75;;
19312;SDS011;9791;50.820;4.406;2022-08-19T06:49:27;10.60;;;5.82;;
19312;SDS011;9791;50.820;4.406;2022-08-19T06:51:55;10.90;;;5.05;;
19312;SDS011;9791;50.820;4.406;2022-08-19T06:54:22;9.18;;;4.53;;
19312;SDS011;9791;50.820;4.406;2022-08-19T06:56:48;11.13;;;4.88;;
19312;SDS011;9791;50.820;4.406;2022-08-19T06:59:16;10.48;;;4.90;;
19312;SDS011;9791;50.820;4.406;2022-08-19T07:01:47;11.32;;;5.18;;
19312;SDS011;9791;50.820;4.406;2022-08-19T07:04:17;10.32;;;4.85;;
19312;SDS011;9791;50.820;4.406;2022-08-19T07:06:44;7.05;;;4.47;;
19312;SDS011;9791;50.820;4.406;2022-08-19T07:09:14;11.65;;;6.00;;
19312;SDS011;9791;50.820;4.406;2022-08-19T07:11:44;10.02;;;4.78;;
19312;SDS011;9791;50.820;4.406;2022-08-19T07:14:10;9.13;;;4.82;;
19312;SDS011;9791;50.820;4.406;2022-08-19T07:16:37;10.30;;;4.70;;
19312;SDS011;9791;50.820;4.406;2022-08-19T07:19:03;11.00;;;4.45;;
19312;SDS011;9791;50.820;4.406;2022-08-19T07:21:29;7.93;;;4.95;;
19312;SDS011;9791;50.820;4.406;2022-08-19T07:23:56;8.95;;;4.43;;
19312;SDS011;9791;50.820;4.406;2022-08-19T07:28:48;11.80;;;5.20;;
19312;SDS011;9791;50.820;4.406;2022-08-19T07:31:16;10.50;;;4.97;;
19312;SDS011;9791;50.820;4.406;2022-08-19T07:33:46;11.63;;;4.68;;
19312;SDS011;9791;50.820;4.406;2022-08-19T07:36:13;9.27;;;4.50;;
19312;SDS011;9791;50.820;4.406;2022-08-19T07:38:42;10.45;;;4.75;;
19312;SDS011;9791;50.820;4.406;2022-08-19T07:41:11;8.57;;;5.13;;
19312;SDS011;9791;50.820;4.406;2022-08-19T07:43:38;12.23;;;5.00;;
19312;SDS011;9791;50.820;4.406;2022-08-19T07:46:04;8.23;;;4.80;;
19312;SDS011;9791;50.820;4.406;2022-08-19T07:48:30;11.73;;;5.10;;
19312;SDS011;9791;50.820;4.406;2022-08-19T07:50:58;8.73;;;4.65;;
19312;SDS011;9791;50.820;4.406;2022-08-19T07:53:27;10.00;;;5.10;;
19312;SDS011;9791;50.820;4.406;2022-08-19T07:55:53;8.75;;;4.80;;
19312;SDS011;9791;50.820;4.406;2022-08-19T07:58:20;9.77;;;4.13;;
19312;SDS011;9791;50.820;4.406;2022-08-19T08:00:47;9.02;;;4.20;;
19312;SDS011;9791;50.820;4.406;2022-08-19T08:03:15;11.65;;;4.65;;
19312;SDS011;9791;50.820;4.406;2022-08-19T08:05:41;9.05;;;4.03;;
19312;SDS011;9791;50.820;4.406;2022-08-19T08:08:26;8.18;;;4.10;;
19312;SDS011;9791;50.820;4.406;2022-08-19T08:11:11;8.15;;;4.32;;
19312;SDS011;9791;50.820;4.406;2022-08-19T08:13:38;8.38;;;3.67;;
19312;SDS011;9791;50.820;4.406;2022-08-19T08:16:06;13.85;;;4.57;;
19312;SDS011;9791;50.820;4.406;2022-08-19T08:18:32;9.00;;;4.10;;
19312;SDS011;9791;50.820;4.406;2022-08-19T08:21:06;6.93;;;3.72;;
19312;SDS011;9791;50.820;4.406;2022-08-19T08:23:32;6.55;;;3.67;;
19312;SDS011;9791;50.820;4.406;2022-08-19T08:25:58;7.00;;;3.55;;
19312;SDS011;9791;50.820;4.406;2022-08-19T08:28:24;7.43;;;4.07;;
19312;SDS011;9791;50.820;4.406;2022-08-19T08:30:52;8.75;;;3.95;;
19312;SDS011;9791;50.820;4.406;2022-08-19T08:33:20;8.90;;;4.05;;
19312;SDS011;9791;50.820;4.406;2022-08-19T08:35:46;8.05;;;4.00;;
19312;SDS011;9791;50.820;4.406;2022-08-19T08:38:13;7.55;;;3.53;;
19312;SDS011;9791;50.820;4.406;2022-08-19T08:40:53;8.65;;;3.90;;
19312;SDS011;9791;50.820;4.406;2022-08-19T08:43:27;6.22;;;2.95;;
19312;SDS011;9791;50.820;4.406;2022-08-19T08:45:59;9.52;;;3.30;;
19312;SDS011;9791;50.820;4.406;2022-08-19T08:48:46;7.13;;;2.65;;
19312;SDS011;9791;50.820;4.406;2022-08-19T08:51:17;5.97;;;3.08;;
19312;SDS011;9791;50.820;4.406;2022-08-19T08:53:44;12.23;;;3.90;;
19312;SDS011;9791;50.820;4.406;2022-08-19T08:56:10;7.88;;;3.90;;
19312;SDS011;9791;50.820;4.406;2022-08-19T09:01:24;9.15;;;4.07;;
19312;SDS011;9791;50.820;4.406;2022-08-19T09:03:50;7.57;;;3.50;;
19312;SDS011;9791;50.820;4.406;2022-08-19T09:08:51;9.60;;;3.58;;
19312;SDS011;9791;50.820;4.406;2022-08-19T09:14:16;8.07;;;3.92;;
19312;SDS011;9791;50.820;4.406;2022-08-19T09:16:46;7.10;;;3.45;;
19312;SDS011;9791;50.820;4.406;2022-08-19T09:19:14;7.43;;;3.63;;
19312;SDS011;9791;50.820;4.406;2022-08-19T09:21:42;5.85;;;3.15;;
19312;SDS011;9791;50.820;4.406;2022-08-19T09:24:08;8.48;;;4.03;;
19312;SDS011;9791;50.820;4.406;2022-08-19T09:26:34;7.32;;;4.05;;
19312;SDS011;9791;50.820;4.406;2022-08-19T09:29:00;6.75;;;3.88;;
19312;SDS011;9791;50.820;4.406;2022-08-19T09:31:31;8.95;;;4.22;;
19312;SDS011;9791;50.820;4.406;2022-08-19T09:33:57;8.38;;;3.17;;
19312;SDS011;9791;50.820;4.406;2022-08-19T09:36:25;6.75;;;3.67;;
19312;SDS011;9791;50.820;4.406;2022-08-19T09:38:52;7.53;;;3.60;;
19312;SDS011;9791;50.820;4.406;2022-08-19T09:41:21;7.82;;;3.47;;
19312;SDS011;9791;50.820;4.406;2022-08-19T09:43:48;6.25;;;3.42;;
19312;SDS011;9791;50.820;4.406;2022-08-19T09:46:16;9.20;;;3.55;;
19312;SDS011;9791;50.820;4.406;2022-08-19T09:48:43;8.80;;;3.67;;
19312;SDS011;9791;50.820;4.406;2022-08-19T09:51:13;6.35;;;3.97;;
19312;SDS011;9791;50.820;4.406;2022-08-19T09:53:43;7.10;;;3.58;;
19312;SDS011;9791;50.820;4.406;2022-08-19T09:56:09;5.78;;;3.53;;
19312;SDS011;9791;50.820;4.406;2022-08-19T09:58:36;5.50;;;3.20;;
19312;SDS011;9791;50.820;4.406;2022-08-19T10:01:03;5.50;;;3.13;;
19312;SDS011;9791;50.820;4.406;2022-08-19T10:03:30;5.90;;;3.20;;
19312;SDS011;9791;50.820;4.406;2022-08-19T10:05:57;5.95;;;3.00;;
19312;SDS011;9791;50.820;4.406;2022-08-19T10:08:26;5.75;;;3.30;;
19312;SDS011;9791;50.820;4.406;2022-08-19T10:10:53;7.70;;;3.55;;
19312;SDS011;9791;50.820;4.406;2022-08-19T10:13:21;7.82;;;3.15;;
19312;SDS011;9791;50.820;4.406;2022-08-19T10:15:50;5.65;;;2.90;;
19312;SDS011;9791;50.820;4.406;2022-08-19T10:18:16;6.55;;;3.33;;
19312;SDS011;9791;50.820;4.406;2022-08-19T10:20:43;5.97;;;2.90;;
19312;SDS011;9791;50.820;4.406;2022-08-19T10:23:10;5.55;;;3.15;;
19312;SDS011;9791;50.820;4.406;2022-08-19T10:25:37;5.07;;;2.80;;
19312;SDS011;9791;50.820;4.406;2022-08-19T10:28:03;8.05;;;3.53;;
19312;SDS011;9791;50.820;4.406;2022-08-19T10:30:30;5.97;;;3.72;;
19312;SDS011;9791;50.820;4.406;2022-08-19T10:32:56;8.63;;;3.95;;
19312;SDS011;9791;50.820;4.406;2022-08-19T10:35:22;9.82;;;3.65;;
19312;SDS011;9791;50.820;4.406;2022-08-19T10:37:50;7.55;;;4.22;;
19312;SDS011;9791;50.820;4.406;2022-08-19T10:40:16;8.77;;;4.70;;
19312;SDS011;9791;50.820;4.406;2022-08-19T10:42:42;8.38;;;5.20;;
19312;SDS011;9791;50.820;4.406;2022-08-19T10:45:09;8.98;;;4.85;;
19312;SDS011;9791;50.820;4.406;2022-08-19T10:47:35;9.90;;;5.15;;
19312;SDS011;9791;50.820;4.406;2022-08-19T10:50:01;7.82;;;4.68;;
19312;SDS011;9791;50.820;4.406;2022-08-19T10:52:46;7.18;;;5.03;;
19312;SDS011;9791;50.820;4.406;2022-08-19T10:55:12;9.05;;;4.57;;
19312;SDS011;9791;50.820;4.406;2022-08-19T10:57:57;7.68;;;4.50;;
19312;SDS011;9791;50.820;4.406;2022-08-19T11:00:23;7.97;;;5.15;;
19312;SDS011;9791;50.820;4.406;2022-08-19T11:02:50;8.00;;;4.72;;
19312;SDS011;9791;50.820;4.406;2022-08-19T11:05:16;8.30;;;4.90;;
19312;SDS011;9791;50.820;4.406;2022-08-19T11:07:43;10.25;;;4.95;;
19312;SDS011;9791;50.820;4.406;2022-08-19T11:10:10;6.93;;;4.63;;
19312;SDS011;9791;50.820;4.406;2022-08-19T11:12:37;6.72;;;3.75;;
19312;SDS011;9791;50.820;4.406;2022-08-19T11:15:07;6.30;;;4.20;;
19312;SDS011;9791;50.820;4.406;2022-08-19T11:17:35;7.35;;;4.50;;
19312;SDS011;9791;50.820;4.406;2022-08-19T11:20:03;7.78;;;5.18;;
19312;SDS011;9791;50.820;4.406;2022-08-19T11:22:30;7.93;;;4.95;;
19312;SDS011;9791;50.820;4.406;2022-08-19T11:24:57;9.38;;;5.68;;
19312;SDS011;9791;50.820;4.406;2022-08-19T11:27:23;8.35;;;5.78;;
19312;SDS011;9791;50.820;4.406;2022-08-19T11:29:49;10.48;;;6.45;;
19312;SDS011;9791;50.820;4.406;2022-08-19T11:32:17;9.70;;;6.20;;
19312;SDS011;9791;50.820;4.406;2022-08-19T11:34:43;9.75;;;6.63;;
19312;SDS011;9791;50.820;4.406;2022-08-19T11:37:09;8.52;;;6.38;;
19312;SDS011;9791;50.820;4.406;2022-08-19T11:39:35;10.60;;;6.65;;
19312;SDS011;9791;50.820;4.406;2022-08-19T11:42:03;8.50;;;5.70;;
19312;SDS011;9791;50.820;4.406;2022-08-19T11:44:52;8.50;;;5.50;;
19312;SDS011;9791;50.820;4.406;2022-08-19T11:47:20;7.68;;;4.85;;
19312;SDS011;9791;50.820;4.406;2022-08-19T11:49:46;7.57;;;5.40;;
19312;SDS011;9791;50.820;4.406;2022-08-19T11:52:12;8.05;;;4.78;;
19312;SDS011;9791;50.820;4.406;2022-08-19T11:54:39;7.38;;;4.68;;
19312;SDS011;9791;50.820;4.406;2022-08-19T11:57:05;9.35;;;5.00;;
19312;SDS011;9791;50.820;4.406;2022-08-19T11:59:31;8.73;;;4.70;;
19312;SDS011;9791;50.820;4.406;2022-08-19T12:01:57;7.68;;;4.10;;
19312;SDS011;9791;50.820;4.406;2022-08-19T12:04:24;7.18;;;4.38;;
19312;SDS011;9791;50.820;4.406;2022-08-19T12:06:50;8.00;;;3.97;;
19312;SDS011;9791;50.820;4.406;2022-08-19T12:09:16;9.13;;;3.65;;
19312;SDS011;9791;50.820;4.406;2022-08-19T12:11:42;6.28;;;3.28;;
19312;SDS011;9791;50.820;4.406;2022-08-19T12:14:09;8.07;;;3.22;;
19312;SDS011;9791;50.820;4.406;2022-08-19T12:16:36;5.97;;;3.35;;
19312;SDS011;9791;50.820;4.406;2022-08-19T12:19:03;4.78;;;2.90;;
19312;SDS011;9791;50.820;4.406;2022-08-19T12:21:30;5.32;;;3.20;;
19312;SDS011;9791;50.820;4.406;2022-08-19T12:23:57;8.32;;;2.92;;
19312;SDS011;9791;50.820;4.406;2022-08-19T12:26:23;5.25;;;2.83;;
19312;SDS011;9791;50.820;4.406;2022-08-19T12:28:50;7.07;;;3.00;;
19312;SDS011;9791;50.820;4.406;2022-08-19T12:31:16;5.28;;;2.85;;
19312;SDS011;9791;50.820;4.406;2022-08-19T12:33:42;5.18;;;2.47;;
19312;SDS011;9791;50.820;4.406;2022-08-19T12:36:09;6.63;;;2.15;;
19312;SDS011;9791;50.820;4.406;2022-08-19T12:38:36;6.85;;;2.25;;
19312;SDS011;9791;50.820;4.406;2022-08-19T12:41:02;5.85;;;2.00;;
19312;SDS011;9791;50.820;4.406;2022-08-19T12:43:31;4.43;;;1.88;;
19312;SDS011;9791;50.820;4.406;2022-08-19T12:45:57;5.28;;;2.08;;
19312;SDS011;9791;50.820;4.406;2022-08-19T12:48:23;4.43;;;1.88;;
19312;SDS011;9791;50.820;4.406;2022-08-19T12:50:49;4.47;;;2.03;;
19312;SDS011;9791;50.820;4.406;2022-08-19T12:53:15;8.00;;;1.60;;
19312;SDS011;9791;50.820;4.406;2022-08-19T12:55:42;5.88;;;1.50;;
19312;SDS011;9791;50.820;4.406;2022-08-19T12:58:09;3.63;;;1.60;;
19312;SDS011;9791;50.820;4.406;2022-08-19T13:00:35;5.13;;;1.65;;
19312;SDS011;9791;50.820;4.406;2022-08-19T13:03:01;4.07;;;1.55;;
19312;SDS011;9791;50.820;4.406;2022-08-19T13:05:29;3.85;;;1.40;;
19312;SDS011;9791;50.820;4.406;2022-08-19T13:07:56;2.42;;;1.25;;
19312;SDS011;9791;50.820;4.406;2022-08-19T13:10:23;3.55;;;1.25;;
19312;SDS011;9791;50.820;4.406;2022-08-19T13:12:50;3.33;;;1.30;;
19312;SDS011;9791;50.820;4.406;2022-08-19T13:15:18;3.15;;;1.40;;
19312;SDS011;9791;50.820;4.406;2022-08-19T13:17:45;3.63;;;1.10;;
19312;SDS011;9791;50.820;4.406;2022-08-19T13:20:13;3.00;;;1.23;;
19312;SDS011;9791;50.820;4.406;2022-08-19T13:22:39;5.88;;;1.27;;
19312;SDS011;9791;50.820;4.406;2022-08-19T13:25:05;3.03;;;1.13;;
19312;SDS011;9791;50.820;4.406;2022-08-19T13:27:32;5.30;;;1.40;;
19312;SDS011;9791;50.820;4.406;2022-08-19T13:29:58;5.60;;;1.13;;
19312;SDS011;9791;50.820;4.406;2022-08-19T13:32:43;2.50;;;1.10;;
19312;SDS011;9791;50.820;4.406;2022-08-19T13:35:27;6.45;;;1.30;;
19312;SDS011;9791;50.820;4.406;2022-08-19T13:37:53;7.68;;;1.30;;
19312;SDS011;9791;50.820;4.406;2022-08-19T13:40:20;3.00;;;1.00;;
19312;SDS011;9791;50.820;4.406;2022-08-19T13:42:49;2.88;;;0.88;;
19312;SDS011;9791;50.820;4.406;2022-08-19T13:45:16;3.45;;;1.20;;
19312;SDS011;9791;50.820;4.406;2022-08-19T13:47:45;4.10;;;0.82;;
19312;SDS011;9791;50.820;4.406;2022-08-19T13:50:12;4.43;;;1.00;;
19312;SDS011;9791;50.820;4.406;2022-08-19T13:52:38;3.80;;;1.30;;
19312;SDS011;9791;50.820;4.406;2022-08-19T13:55:05;5.97;;;1.33;;
19312;SDS011;9791;50.820;4.406;2022-08-19T13:57:31;2.67;;;1.25;;
19312;SDS011;9791;50.820;4.406;2022-08-19T13:59:57;5.30;;;1.08;;
19312;SDS011;9791;50.820;4.406;2022-08-19T14:02:24;4.70;;;1.10;;
19312;SDS011;9791;50.820;4.406;2022-08-19T14:04:51;3.50;;;1.27;;
19312;SDS011;9791;50.820;4.406;2022-08-19T14:07:17;4.68;;;1.23;;
19312;SDS011;9791;50.820;4.406;2022-08-19T14:09:43;2.97;;;1.10;;
19312;SDS011;9791;50.820;4.406;2022-08-19T14:12:09;2.85;;;1.00;;
19312;SDS011;9791;50.820;4.406;2022-08-19T14:14:38;3.58;;;1.30;;
19312;SDS011;9791;50.820;4.406;2022-08-19T14:17:07;6.43;;;1.00;;
19312;SDS011;9791;50.820;4.406;2022-08-19T14:19:34;3.05;;;1.10;;
19312;SDS011;9791;50.820;4.406;2022-08-19T14:22:00;2.88;;;1.30;;
19312;SDS011;9791;50.820;4.406;2022-08-19T14:24:26;3.28;;;1.13;;
19312;SDS011;9791;50.820;4.406;2022-08-19T14:26:52;2.53;;;1.00;;
19312;SDS011;9791;50.820;4.406;2022-08-19T14:29:18;3.92;;;1.27;;
19312;SDS011;9791;50.820;4.406;2022-08-19T14:31:44;3.38;;;1.25;;
19312;SDS011;9791;50.820;4.406;2022-08-19T14:34:10;3.67;;;1.27;;
19312;SDS011;9791;50.820;4.406;2022-08-19T14:36:39;4.80;;;1.20;;
19312;SDS011;9791;50.820;4.406;2022-08-19T14:39:06;2.92;;;1.20;;
19312;SDS011;9791;50.820;4.406;2022-08-19T14:41:33;4.18;;;0.93;;
19312;SDS011;9791;50.820;4.406;2022-08-19T14:43:59;2.10;;;0.90;;
19312;SDS011;9791;50.820;4.406;2022-08-19T14:46:26;2.50;;;0.90;;
19312;SDS011;9791;50.820;4.406;2022-08-19T14:48:53;3.95;;;1.20;;
19312;SDS011;9791;50.820;4.406;2022-08-19T14:51:20;3.92;;;1.20;;
19312;SDS011;9791;50.820;4.406;2022-08-19T14:53:46;3.70;;;1.27;;
19312;SDS011;9791;50.820;4.406;2022-08-19T14:56:14;1.92;;;0.68;;
19312;SDS011;9791;50.820;4.406;2022-08-19T14:58:41;2.08;;;0.75;;
19312;SDS011;9791;50.820;4.406;2022-08-19T15:01:08;1.17;;;0.73;;